Terminal Aerodrome Forecast
Issued by NWS

Home | Current Version | Previous Version | Text Only | Print | Product List | Glossary On
Versions: 1 2 3 4 5 6 7 8 9 10 11 12
000
FTUS44 KEPZ 221700
TAFDMN
TAF
KDMN 221720Z 2218/2318 19004KT P6SM FEW090 SCT250
     FM222100 10010KT P6SM VCTS SCT070CB SCT120 BKN250
     FM230700 09012KT P6SM SCT100 BKN250=

USA.gov is the U.S. government's official web portal to all federal, state and local government web resources and services.